EDDM/MUC METAR and TAF weather

Enter ICAO airport designator
Station Type Date Time Source
EDDM METAR 2019/04/18 20:20 UTC NOAA

EDDM 182020Z 04006KT 010V070 CAVOK 14/02 Q1024 NOSIG


Station Type Date Time Source
EDDM Decoded METAR 2019/04/18 20:20 UTC NOAA

Munchen, Germany (EDDM) 48-21N 011-47E
Apr 18, 2019 - 04:20 PM EDT / 2019.04.18 2020 UTC
Wind: from the NE (040 degrees) at 7 MPH (6 KT) (direction variable):0
Visibility: greater than 7 mile(s):0
Temperature: 57 F (14 C)
Dew Point: 35 F (2 C)
Relative Humidity: 44%
Pressure (altimeter): 30.24 in. Hg (1024 hPa)
ob: EDDM 182020Z 04006KT 010V070 CAVOK 14/02 Q1024 NOSIG
cycle: 20

Station Type Date Time Source
EDDM TAF 2019/04/18 18:27 UTC NOAA

TAF EDDM 181700Z 1818/1924 08012KT CAVOK
BECMG 1821/1823 07005KT
BECMG 1907/1909 09010KT
BECMG 1917/1919 07005KT

Example: see airport list